Time;durP1;ratioP1;P1;durP2;ratioP2;P2;SDS_P1;SDS_P2;PMS_P1;PMS_P2;Temp;Humidity;BMP_temperature;BMP_pressure;BME280_temperature;BME280_humidity;BME280_pressure;Samples;Min_cycle;Max_cycle;Signal;HPM_P1;HPM_P2
2021/09/26 00:00:39;;;;;;;1999.90;999.90;;;;;;;17.26;78.85;101395.44;15683288;28;20049;-57
2021/09/26 00:08:13;;;;;;;1999.90;999.90;;;;;;;17.30;79.23;101390.72;15682557;28;20401;-59
2021/09/26 00:15:46;;;;;;;1999.90;999.90;;;;;;;17.34;79.41;101393.63;15682183;28;20130;-56
2021/09/26 00:23:19;;;;;;;1999.90;999.90;;;;;;;17.33;78.91;101396.81;15682107;28;20053;-58
2021/09/26 00:30:55;;;;;;;1999.90;999.90;;;;;;;17.41;79.36;101396.66;15663238;28;20049;-62
2021/09/26 00:38:28;;;;;;;1999.90;999.90;;;;;;;17.34;79.49;101390.81;15681087;28;20049;-59
2021/09/26 00:46:01;;;;;;;1999.90;999.90;;;;;;;17.34;78.91;101390.00;15679722;28;20498;-61
2021/09/26 00:53:34;;;;;;;1999.90;999.90;;;;;;;17.37;79.47;101389.25;15680428;28;20041;-61
2021/09/26 01:01:07;;;;;;;1999.90;999.90;;;;;;;17.47;79.03;101380.25;15680455;28;20171;-59
2021/09/26 01:08:56;;;;;;;1999.90;999.90;;;;;;;17.44;79.82;101392.28;15679011;28;20075;-59
2021/09/26 01:16:34;;;;;;;1999.90;999.90;;;;;;;17.57;79.76;101389.00;15678807;28;20044;-58
2021/09/26 01:24:41;;;;;;;1999.90;999.90;;;;;;;17.33;80.79;101389.19;15678535;28;20489;-59
2021/09/26 01:32:17;;;;;;;1999.90;999.90;;;;;;;17.54;79.99;101386.91;15646956;28;20073;-58
2021/09/26 01:40:07;;;;;;;1999.90;999.90;;;;;;;17.52;80.48;101389.28;15643031;28;20087;-59
2021/09/26 01:47:43;;;;;;;1999.90;999.90;;;;;;;17.55;80.16;101380.06;15659727;28;20128;-63
2021/09/26 01:55:17;;;;;;;1999.90;999.90;;;;;;;17.48;80.50;101379.06;15676674;28;20120;-63
2021/09/26 02:02:51;;;;;;;1999.90;999.90;;;;;;;17.64;80.18;101390.38;15677349;28;20106;-63
2021/09/26 02:10:28;;;;;;;1999.90;999.90;;;;;;;17.50;81.25;101400.09;15642300;28;20493;-62
2021/09/26 02:18:04;;;;;;;1999.90;999.90;;;;;;;17.26;83.32;101391.81;15675572;28;20509;-62
2021/09/26 02:25:39;;;;;;;1999.90;999.90;;;;;;;17.09;84.35;101390.16;15658282;28;20532;-63
2021/09/26 02:33:13;;;;;;;1999.90;999.90;;;;;;;17.37;83.71;101395.72;15675636;28;20045;-62
2021/09/26 02:40:52;;;;;;;1999.90;999.90;;;;;;;17.43;83.55;101401.94;15675663;28;20037;-63
2021/09/26 02:48:30;;;;;;;1999.90;999.90;;;;;;;17.62;83.16;101402.03;15641211;28;20049;-60
2021/09/26 02:56:12;;;;;;;1999.90;999.90;;;;;;;17.80;81.99;101396.84;15674789;28;20123;-63
2021/09/26 03:03:46;;;;;;;1999.90;999.90;;;;;;;17.72;82.15;101393.03;15659570;28;20033;-62
2021/09/26 03:11:19;;;;;;;1999.90;999.90;;;;;;;17.85;81.46;101405.84;15687028;28;20063;-63
2021/09/26 03:18:53;;;;;;;1999.90;999.90;;;;;;;18.04;80.73;101398.66;15686159;28;20441;-63
2021/09/26 03:26:26;;;;;;;1999.90;999.90;;;;;;;17.76;81.44;101385.47;15685478;28;20049;-62
2021/09/26 03:33:59;;;;;;;1999.90;999.90;;;;;;;17.85;80.65;101400.22;15685012;28;20079;-62
2021/09/26 03:41:31;;;;;;;1999.90;999.90;;;;;;;17.74;80.76;101398.31;15684435;28;20409;-62
2021/09/26 03:49:05;;;;;;;1999.90;999.90;;;;;;;17.45;81.90;101379.81;15683993;28;20098;-62
2021/09/26 03:56:37;;;;;;;1999.90;999.90;;;;;;;17.49;81.23;101406.09;15683534;28;20160;-62
2021/09/26 04:04:11;;;;;;;1999.90;999.90;;;;;;;17.51;80.78;101387.66;15665595;28;20068;-63
2021/09/26 04:11:43;;;;;;;1999.90;999.90;;;;;;;17.19;82.93;101394.41;15665143;28;20533;-62
2021/09/26 04:19:17;;;;;;;1999.90;999.90;;;;;;;17.11;83.78;101384.16;15663627;28;20053;-63
2021/09/26 04:26:49;;;;;;;1999.90;999.90;;;;;;;16.82;86.68;101388.19;15681725;28;20045;-63
2021/09/26 04:34:27;;;;;;;1999.90;999.90;;;;;;;17.07;86.35;101386.84;15634401;28;20048;-61
2021/09/26 04:41:59;;;;;;;1999.90;999.90;;;;;;;17.27;85.53;101393.44;15681019;28;20049;-63
2021/09/26 04:49:32;;;;;;;1999.90;999.90;;;;;;;17.56;84.29;101381.72;15680450;28;20098;-63
2021/09/26 04:57:05;;;;;;;1999.90;999.90;;;;;;;17.53;83.79;101382.44;15679721;28;20053;-62
2021/09/26 05:04:38;;;;;;;1999.90;999.90;;;;;;;17.50;84.44;101387.97;15662146;28;20049;-62
2021/09/26 05:12:11;;;;;;;1999.90;999.90;;;;;;;17.41;85.64;101399.47;15679070;28;20044;-61
2021/09/26 05:19:46;;;;;;;1999.90;999.90;;;;;;;17.34;86.45;101404.09;15645039;28;20056;-61
2021/09/26 05:27:22;;;;;;;1999.90;999.90;;;;;;;17.35;86.58;101400.09;15640571;28;20045;-62
2021/09/26 05:34:56;;;;;;;1999.90;999.90;;;;;;;17.48;86.36;101407.28;15644203;28;20037;-64
2021/09/26 05:42:28;;;;;;;1999.90;999.90;;;;;;;17.48;86.54;101405.28;15678689;28;20065;-62
2021/09/26 05:50:02;;;;;;;1999.90;999.90;;;;;;;17.72;86.17;101398.69;15659400;28;20615;-62
2021/09/26 05:57:35;;;;;;;1999.90;999.90;;;;;;;17.72;86.02;101404.34;15676779;28;20510;-62
2021/09/26 06:05:11;;;;;;;1999.90;999.90;;;;;;;17.58;86.27;101403.91;15658821;28;20041;-63
2021/09/26 06:12:43;;;;;;;1999.90;999.90;;;;;;;17.70;86.33;101392.56;15676307;28;20045;-63
2021/09/26 06:20:16;;;;;;;1999.90;999.90;;;;;;;18.01;85.34;101402.19;15657504;28;20048;-62
2021/09/26 06:27:49;;;;;;;1999.90;999.90;;;;;;;18.33;83.94;101395.25;15675285;28;20147;-64
2021/09/26 06:35:22;;;;;;;1999.90;999.90;;;;;;;18.74;82.48;101399.41;15658115;28;20072;-63
2021/09/26 06:42:54;;;;;;;1999.90;999.90;;;;;;;19.44;78.50;101408.84;15683489;28;20041;-62
2021/09/26 06:50:28;;;;;;;1999.90;999.90;;;;;;;20.25;75.39;101405.75;15629075;28;20144;-63
2021/09/26 06:58:00;;;;;;;1999.90;999.90;;;;;;;20.57;73.20;101406.22;15668623;28;20069;-62
2021/09/26 07:05:34;;;;;;;1999.90;999.90;;;;;;;21.31;70.02;101411.97;15687746;28;20275;-61
2021/09/26 07:13:06;;;;;;;1999.90;999.90;;;;;;;21.11;69.35;101407.69;15685163;28;20324;-62
2021/09/26 07:20:40;;;;;;;1999.90;999.90;;;;;;;21.50;67.77;101408.94;15686126;28;20456;-62
2021/09/26 07:28:12;;;;;;;1999.90;999.90;;;;;;;22.22;65.23;101410.34;15663916;28;20311;-61
2021/09/26 07:35:46;;;;;;;1999.90;999.90;;;;;;;21.77;65.67;101418.06;15650258;28;20473;-62
2021/09/26 07:43:39;;;;;;;1999.90;999.90;;;;;;;22.70;63.94;101415.88;15678851;28;20455;-59
2021/09/26 07:51:13;;;;;;;1999.90;999.90;;;;;;;23.14;61.12;101423.41;15551123;28;20265;-54
2021/09/26 07:58:45;;;;;;;1999.90;999.90;;;;;;;23.66;60.63;101419.03;15535470;28;20162;-55
2021/09/26 08:06:19;;;;;;;1999.90;999.90;;;;;;;23.46;60.20;101412.88;15524210;28;20050;-53
2021/09/26 08:13:51;;;;;;;1999.90;999.90;;;;;;;23.86;55.90;101406.03;15542719;28;20100;-57
2021/09/26 08:21:25;;;;;;;1999.90;999.90;;;;;;;24.19;57.13;101409.66;15550564;28;20203;-51
2021/09/26 08:28:57;;;;;;;1999.90;999.90;;;;;;;24.83;54.46;101415.19;15567528;28;20046;-54
2021/09/26 08:36:30;;;;;;;1999.90;999.90;;;;;;;24.44;54.92;101421.84;15546811;28;20045;-56
2021/09/26 08:44:04;;;;;;;1999.90;999.90;;;;;;;24.45;54.20;101408.38;15552524;28;20136;-53
2021/09/26 08:51:38;;;;;;;1999.90;999.90;;;;;;;24.66;55.21;101407.50;15543760;28;20042;-54
2021/09/26 08:59:12;;;;;;;1999.90;999.90;;;;;;;25.09;53.06;101407.31;15552392;28;20057;-54
2021/09/26 09:06:48;;;;;;;1999.90;999.90;;;;;;;25.69;52.50;101403.25;15549365;28;20049;-55
2021/09/26 09:14:20;;;;;;;1999.90;999.90;;;;;;;25.27;51.28;101405.19;15504822;28;20046;-61
2021/09/26 09:22:11;;;;;;;1999.90;999.90;;;;;;;25.92;51.28;101412.06;15526751;28;20070;-57
2021/09/26 09:29:43;;;;;;;1999.90;999.90;;;;;;;25.14;52.96;101415.47;15537492;28;20045;-55
2021/09/26 09:37:27;;;;;;;1999.90;999.90;;;;;;;26.53;49.22;101408.59;15541100;28;20153;-54
2021/09/26 09:45:13;;;;;;;1999.90;999.90;;;;;;;25.95;51.11;101404.66;15477668;28;20042;-57
2021/09/26 09:52:52;;;;;;;1999.90;999.90;;;;;;;25.42;52.13;101401.00;15550464;28;20042;-58
2021/09/26 10:00:26;;;;;;;1999.90;999.90;;;;;;;25.95;51.00;101399.78;15550920;28;20054;-59
2021/09/26 10:08:00;;;;;;;1999.90;999.90;;;;;;;26.34;49.94;101401.41;15515051;28;20077;-57
2021/09/26 10:15:32;;;;;;;1999.90;999.90;;;;;;;26.69;49.68;101392.47;15546877;28;20042;-58
2021/09/26 10:23:06;;;;;;;1999.90;999.90;;;;;;;26.28;49.27;101392.50;15549188;28;20046;-56
2021/09/26 10:30:38;;;;;;;1999.90;999.90;;;;;;;26.03;50.97;101378.44;15545452;28;20042;-59
2021/09/26 10:38:12;;;;;;;1999.90;999.90;;;;;;;26.09;50.51;101373.09;15531953;28;20361;-60
2021/09/26 10:45:45;;;;;;;1999.90;999.90;;;;;;;26.31;50.03;101370.81;15531171;28;20042;-60
2021/09/26 10:53:20;;;;;;;1999.90;999.90;;;;;;;27.54;46.11;101370.38;15547527;28;20042;-59
2021/09/26 11:00:56;;;;;;;1999.90;999.90;;;;;;;27.55;45.36;101368.34;15548891;28;20046;-57
2021/09/26 11:08:44;;;;;;;1999.90;999.90;;;;;;;27.69;46.23;101355.84;15512796;28;20049;-57
2021/09/26 11:16:19;;;;;;;1999.90;999.90;;;;;;;29.29;43.53;101343.97;15547227;28;20050;-55
2021/09/26 11:23:59;;;;;;;1999.90;999.90;;;;;;;29.22;43.21;101356.44;15548305;28;20042;-57
2021/09/26 11:31:42;;;;;;;1999.90;999.90;;;;;;;29.53;41.30;101361.88;15540443;28;20046;-54
2021/09/26 11:39:29;;;;;;;1999.90;999.90;;;;;;;28.55;43.19;101346.41;15558471;28;20057;-55
2021/09/26 11:47:01;;;;;;;1999.90;999.90;;;;;;;27.61;46.21;101343.66;15516932;28;20048;-57
2021/09/26 11:54:35;;;;;;;1999.90;999.90;;;;;;;29.18;42.77;101329.84;15556908;28;20139;-58
2021/09/26 12:02:13;;;;;;;1999.90;999.90;;;;;;;29.43;42.38;101319.81;15538972;28;20483;-59
2021/09/26 12:09:49;;;;;;;1999.90;999.90;;;;;;;30.25;41.06;101314.78;15532716;28;20064;-56
2021/09/26 12:17:26;;;;;;;1999.90;999.90;;;;;;;29.58;41.51;101319.00;15554166;28;20348;-53
2021/09/26 12:25:03;;;;;;;1999.90;999.90;;;;;;;31.33;38.94;101313.91;15554850;28;20081;-55
2021/09/26 12:32:40;;;;;;;1999.90;999.90;;;;;;;33.12;35.77;101311.84;15554028;28;20038;-57
2021/09/26 12:40:15;;;;;;;1999.90;999.90;;;;;;;32.17;36.76;101322.94;15540222;28;20082;-55
2021/09/26 12:47:48;;;;;;;1999.90;999.90;;;;;;;30.91;38.23;101308.25;15548672;28;20422;-55
2021/09/26 12:55:24;;;;;;;1999.90;999.90;;;;;;;29.94;39.47;101308.63;15553697;28;20042;-55
2021/09/26 13:03:00;;;;;;;1999.90;999.90;;;;;;;29.17;41.92;101307.28;15535784;28;20046;-53
2021/09/26 13:10:39;;;;;;;1999.90;999.90;;;;;;;30.39;39.41;101299.94;15551417;28;20411;-54
2021/09/26 13:18:30;;;;;;;1999.90;999.90;;;;;;;28.49;43.00;101308.81;15515154;28;20056;-58
2021/09/26 13:26:08;;;;;;;1999.90;999.90;;;;;;;29.56;40.90;101292.78;15553078;28;20152;-59
2021/09/26 13:33:41;;;;;;;1999.90;999.90;;;;;;;28.26;41.62;101298.22;15535174;28;20600;-59
2021/09/26 13:41:19;;;;;;;1999.90;999.90;;;;;;;27.77;43.42;101279.94;15550466;28;20432;-57
2021/09/26 14:06:33;;;;;;;1999.90;999.90;;;;;;;28.12;42.95;101273.47;15582086;28;20131;-61
2021/09/26 14:14:07;;;;;;;1999.90;999.90;;;;;;;26.98;44.72;101268.94;15580419;28;20049;-61
2021/09/26 14:21:41;;;;;;;1999.90;999.90;;;;;;;27.34;44.89;101243.41;15613452;28;20041;-59
2021/09/26 14:29:13;;;;;;;1999.90;999.90;;;;;;;27.12;45.12;101248.69;15557286;28;20135;-61
2021/09/26 14:36:47;;;;;;;1999.90;999.90;;;;;;;27.42;44.46;101236.31;15614520;28;20041;-61
2021/09/26 14:44:20;;;;;;;1999.90;999.90;;;;;;;27.28;44.46;101237.34;15613900;28;20486;-61
2021/09/26 14:51:54;;;;;;;1999.90;999.90;;;;;;;27.52;43.31;101243.09;15613528;28;20045;-61
2021/09/26 14:59:26;;;;;;;1999.90;999.90;;;;;;;27.47;44.22;101230.06;15614618;28;20049;-60
2021/09/26 15:07:00;;;;;;;1999.90;999.90;;;;;;;26.93;43.39;101235.88;15625292;28;20226;-62
2021/09/26 15:14:32;;;;;;;1999.90;999.90;;;;;;;27.06;42.73;101224.66;15625022;28;20041;-60
2021/09/26 15:22:05;;;;;;;;;;;;;;;26.87;45.91;101223.28;15625489;28;20049;-60
2021/09/26 15:29:38;;;;;;;1999.90;999.90;;;;;;;26.81;46.55;101230.75;15624315;28;20102;-59
2021/09/26 15:37:13;;;;;;;;;;;;;;;26.62;46.92;101229.41;15624068;28;20104;-61
2021/09/26 15:44:46;;;;;;;1999.90;999.90;;;;;;;26.22;49.08;101230.34;15623070;28;20536;-60
2021/09/26 15:52:24;;;;;;;1999.90;999.90;;;;;;;25.96;50.11;101220.47;15605514;28;20099;-62
2021/09/26 15:59:57;;;;;;;1999.90;999.90;;;;;;;25.68;49.92;101216.69;15605040;28;20061;-61
2021/09/26 16:07:30;;;;;;;1999.90;999.90;;;;;;;25.59;50.94;101216.34;15604034;28;20673;-61
2021/09/26 16:15:04;;;;;;;1999.90;999.90;;;;;;;25.56;51.06;101209.47;15617695;28;20057;-58
2021/09/26 16:22:39;;;;;;;1999.90;999.90;;;;;;;25.40;50.61;101212.06;15620143;28;20404;-60
2021/09/26 16:30:12;;;;;;;1999.90;999.90;;;;;;;24.99;51.48;101209.94;15614435;28;20084;-58
2021/09/26 16:37:46;;;;;;;1999.90;999.90;;;;;;;24.82;51.96;101207.25;15607555;28;20054;-61
2021/09/26 16:45:20;;;;;;;1999.90;999.90;;;;;;;24.56;53.00;101197.22;15619510;28;20038;-61
2021/09/26 16:52:54;;;;;;;1999.90;999.90;;;;;;;24.46;53.33;101201.78;15620534;28;20049;-62
2021/09/26 17:00:26;;;;;;;1999.90;999.90;;;;;;;24.27;54.91;101188.81;15618921;28;20046;-59
2021/09/26 17:08:00;;;;;;;1999.90;999.90;;;;;;;24.16;54.49;101183.16;15614286;28;20045;-59
2021/09/26 17:15:36;;;;;;;1999.90;999.90;;;;;;;23.96;55.03;101192.63;15617720;28;20064;-59
2021/09/26 17:23:14;;;;;;;1999.90;999.90;;;;;;;24.00;54.43;101194.25;15599969;28;20057;-60
2021/09/26 17:30:48;;;;;;;1999.90;999.90;;;;;;;23.55;55.28;101191.13;15617432;28;20041;-61
2021/09/26 17:38:22;;;;;;;1999.90;999.90;;;;;;;23.31;55.78;101206.22;15617279;28;20493;-60
2021/09/26 17:45:57;;;;;;;1999.90;999.90;;;;;;;23.35;55.77;101207.03;15616475;28;20567;-60
2021/09/26 17:53:49;;;;;;;1999.90;999.90;;;;;;;23.61;55.31;101203.75;15599722;28;20041;-61
2021/09/26 18:01:23;;;;;;;1999.90;999.90;;;;;;;23.16;55.95;101204.63;15599206;28;20079;-60
2021/09/26 18:08:56;;;;;;;1999.90;999.90;;;;;;;23.14;55.90;101224.97;15598771;28;20078;-61
2021/09/26 18:16:39;;;;;;;1999.90;999.90;;;;;;;22.95;56.47;101234.72;15598562;28;20049;-61
2021/09/26 18:24:12;;;;;;;;;;;;;;;23.15;56.30;101237.16;15609127;28;20113;-60
2021/09/26 18:31:49;;;;;;;1999.90;999.90;;;;;;;22.96;57.14;101239.19;15620545;28;19921;-61
2021/09/26 18:39:37;;;;;;;1999.90;999.90;;;;;;;22.47;58.61;101232.16;15620032;28;20064;-60
2021/09/26 18:47:22;;;;;;;1999.90;999.90;;;;;;;22.42;59.37;101238.25;15627371;28;20037;-60
2021/09/26 18:55:16;;;;;;;1999.90;999.90;;;;;;;22.27;60.49;101255.63;15619480;28;20089;-60
2021/09/26 19:02:54;;;;;;;1999.90;999.90;;;;;;;22.04;61.36;101256.72;15626401;28;20390;-58
2021/09/26 19:10:31;;;;;;;1999.90;999.90;;;;;;;21.98;61.44;101257.50;15584236;28;20042;-61
2021/09/26 19:18:04;;;;;;;1999.90;999.90;;;;;;;21.78;62.09;101268.34;15546797;28;20134;-59
2021/09/26 19:25:37;;;;;;;1999.90;999.90;;;;;;;21.67;62.76;101259.75;15563919;28;20396;-59
2021/09/26 19:33:10;;;;;;;1999.90;999.90;;;;;;;21.65;63.00;101250.00;15563267;28;20049;-59
2021/09/26 19:40:53;;;;;;;1999.90;999.90;;;;;;;21.37;64.08;101240.09;15545413;28;20049;-56
2021/09/26 19:48:33;;;;;;;1999.90;999.90;;;;;;;21.15;64.50;101244.75;15545103;28;20056;-58
2021/09/26 19:56:09;;;;;;;1999.90;999.90;;;;;;;20.82;65.72;101256.19;15561722;28;20046;-57
2021/09/26 20:03:42;;;;;;;1999.90;999.90;;;;;;;20.83;65.67;101255.81;15544279;28;20404;-59
2021/09/26 20:11:16;;;;;;;1999.90;999.90;;;;;;;20.73;65.78;101250.84;15591852;28;20476;-59
2021/09/26 20:18:49;;;;;;;1999.90;999.90;;;;;;;20.48;66.85;101244.91;15605714;28;20456;-58
2021/09/26 20:26:23;;;;;;;;;;;;;;;20.58;66.78;101249.06;15588741;28;20041;-59
2021/09/26 20:33:55;;;;;;;1999.90;999.90;;;;;;;20.34;67.30;101248.38;15621792;28;19921;-57
2021/09/26 20:41:45;;;;;;;1999.90;999.90;;;;;;;20.41;66.88;101245.63;15621849;28;20069;-57
2021/09/26 20:49:32;;;;;;;1999.90;999.90;;;;;;;20.26;67.52;101241.00;15621669;28;20123;-57
2021/09/26 20:57:07;;;;;;;1999.90;999.90;;;;;;;20.12;67.85;101244.47;15584835;28;20045;-56
2021/09/26 21:04:39;;;;;;;1999.90;999.90;;;;;;;19.86;68.52;101248.16;15612545;28;20064;-57
2021/09/26 21:12:13;;;;;;;1999.90;999.90;;;;;;;20.09;68.18;101242.41;15598999;28;20469;-55
2021/09/26 21:19:47;;;;;;;1999.90;999.90;;;;;;;19.97;68.63;101244.66;15569411;28;20057;-60
2021/09/26 21:27:20;;;;;;;1999.90;999.90;;;;;;;19.89;68.43;101250.22;15583082;28;20059;-58
2021/09/26 21:34:53;;;;;;;1999.90;999.90;;;;;;;19.76;69.22;101251.66;15600920;28;20454;-57
2021/09/26 21:42:26;;;;;;;1999.90;999.90;;;;;;;19.91;68.67;101252.69;15600577;28;20471;-61
2021/09/26 21:49:59;;;;;;;1999.90;999.90;;;;;;;19.71;69.51;101249.19;15593618;28;20107;-58
2021/09/26 21:57:32;;;;;;;1999.90;999.90;;;;;;;19.65;69.61;101250.69;15608179;28;20112;-60
2021/09/26 22:05:05;;;;;;;1999.90;999.90;;;;;;;19.76;69.58;101245.19;15615127;28;20116;-57
2021/09/26 22:12:39;;;;;;;;;;;;;;;19.46;71.05;101237.44;15557393;28;20049;-57
2021/09/26 22:20:15;;;;;;;1999.90;999.90;;;;;;;19.56;70.32;101236.81;15589499;28;20341;-59
2021/09/26 22:27:51;;;;;;;1999.90;999.90;;;;;;;19.46;70.82;101226.13;15611500;28;20042;-61
2021/09/26 22:35:27;;;;;;;1999.90;999.90;;;;;;;19.38;71.26;101223.56;15615100;28;20128;-59
2021/09/26 22:43:01;;;;;;;1999.90;999.90;;;;;;;19.21;71.89;101216.44;15596082;28;20042;-58
2021/09/26 22:50:35;;;;;;;1999.90;999.90;;;;;;;19.14;71.91;101213.50;15598830;28;20076;-59
2021/09/26 22:58:12;;;;;;;1999.90;999.90;;;;;;;19.10;72.56;101210.63;15597165;28;20633;-58
2021/09/26 23:05:45;;;;;;;1999.90;999.90;;;;;;;18.80;73.40;101216.16;15577479;28;20046;-57
2021/09/26 23:13:19;;;;;;;1999.90;999.90;;;;;;;18.80;73.77;101218.19;15602390;28;20326;-58
2021/09/26 23:20:54;;;;;;;1999.90;999.90;;;;;;;18.66;74.19;101228.03;15602444;28;20055;-57
2021/09/26 23:28:28;;;;;;;1999.90;999.90;;;;;;;18.68;74.38;101225.66;15624187;28;20099;-57
2021/09/26 23:36:00;;;;;;;1999.90;999.90;;;;;;;18.54;74.89;101222.50;15624987;28;20069;-56
2021/09/26 23:43:37;;;;;;;1999.90;999.90;;;;;;;18.75;73.97;101225.75;15583395;28;20056;-56
2021/09/26 23:51:09;;;;;;;1999.90;999.90;;;;;;;18.69;74.45;101232.94;15604710;28;20046;-60
2021/09/26 23:58:43;;;;;;;1999.90;999.90;;;;;;;18.74;74.01;101226.97;15622471;28;20140;-58
